Time;durP1;ratioP1;P1;durP2;ratioP2;P2;SDS_P1;SDS_P2;PMS_P1;PMS_P2;Temp;Humidity;BMP_temperature;BMP_pressure;BME280_temperature;BME280_humidity;BME280_pressure;Samples;Min_cycle;Max_cycle;Signal;HPM_P1;HPM_P2
2022/09/07 00:00:42;;;;;;;3.07;2.20;;;19.20;98.00;;;;;;5052389;28;20472;-71
2022/09/07 00:03:10;;;;;;;4.60;2.70;;;19.10;98.00;;;;;;5052511;28;20461;-71
2022/09/07 00:05:42;;;;;;;4.17;2.67;;;19.10;98.00;;;;;;5052389;28;20454;-71
2022/09/07 00:08:10;;;;;;;2.90;2.07;;;19.10;98.00;;;;;;5052500;28;20450;-71
2022/09/07 00:10:37;;;;;;;2.93;2.10;;;19.10;98.00;;;;;;5052153;28;20516;-71
2022/09/07 00:13:06;;;;;;;3.53;2.20;;;19.40;98.00;;;;;;5052284;28;20876;-71
2022/09/07 00:15:34;;;;;;;3.93;2.57;;;19.40;98.00;;;;;;5052349;28;20810;-71
2022/09/07 00:18:01;;;;;;;2.97;2.30;;;19.30;98.00;;;;;;5052132;28;20488;-71
2022/09/07 00:20:28;;;;;;;3.73;2.07;;;19.30;98.00;;;;;;5052307;28;20449;-71
2022/09/07 00:22:55;;;;;;;4.00;2.60;;;19.30;98.00;;;;;;5052315;28;20464;-71
2022/09/07 00:25:23;;;;;;;4.00;2.40;;;19.10;98.00;;;;;;5034466;28;20462;-71
2022/09/07 00:27:50;;;;;;;3.27;2.17;;;19.10;98.00;;;;;;5052281;28;20493;-70
2022/09/07 00:30:19;;;;;;;3.07;2.07;;;19.00;98.00;;;;;;5051744;28;20453;-71
2022/09/07 00:32:46;;;;;;;3.47;2.10;;;18.90;98.00;;;;;;5052039;28;20861;-71
2022/09/07 00:35:13;;;;;;;4.00;3.10;;;19.00;98.00;;;;;;5051844;28;20545;-71
2022/09/07 00:37:40;;;;;;;2.97;2.10;;;19.00;98.00;;;;;;5051681;28;20485;-71
2022/09/07 00:40:08;;;;;;;2.70;2.20;;;19.00;98.00;;;;;;5034013;28;20457;-71
2022/09/07 00:42:35;;;;;;;3.00;2.13;;;18.80;98.00;;;;;;5051977;28;20468;-71
2022/09/07 00:45:10;;;;;;;3.43;2.20;;;18.70;98.00;;;;;;5051522;28;20450;-71
2022/09/07 00:47:46;;;;;;;3.70;2.17;;;18.80;98.00;;;;;;5051853;28;20531;-71
2022/09/07 00:50:18;;;;;;;2.70;1.90;;;18.70;98.00;;;;;;5051568;28;20774;-70
2022/09/07 00:52:48;;;;;;;2.23;1.83;;;18.50;98.00;;;;;;5051821;28;20458;-70
2022/09/07 00:55:17;;;;;;;3.20;2.10;;;18.60;98.00;;;;;;5051606;28;20457;-71
2022/09/07 00:57:49;;;;;;;2.83;2.10;;;18.60;98.00;;;;;;5053357;28;20468;-71
2022/09/07 01:00:17;;;;;;;3.10;2.43;;;18.50;98.00;;;;;;5055780;28;20468;-71
2022/09/07 01:02:49;;;;;;;3.73;2.17;;;18.40;98.00;;;;;;5055997;28;20446;-70
2022/09/07 01:05:21;;;;;;;4.07;2.77;;;18.40;98.00;;;;;;5037880;28;20811;-71
2022/09/07 01:07:50;;;;;;;4.40;2.20;;;18.30;98.00;;;;;;5055995;28;20464;-71
2022/09/07 01:10:18;;;;;;;3.53;2.37;;;18.20;98.00;;;;;;5038166;28;20465;-71
2022/09/07 01:12:45;;;;;;;3.77;2.50;;;18.40;98.00;;;;;;5055838;28;20477;-71
2022/09/07 01:15:12;;;;;;;2.43;1.97;;;18.50;98.00;;;;;;5055698;28;20445;-71
2022/09/07 01:17:53;;;;;;;2.20;1.90;;;18.70;98.00;;;;;;5021345;28;20461;-71
2022/09/07 01:20:50;;;;;;;7.63;2.60;;;18.60;98.00;;;;;;5055731;28;20461;-71
2022/09/07 01:23:49;;;;;;;4.23;2.53;;;18.50;98.00;;;;;;5055500;28;20461;-71
2022/09/07 01:27:01;;;;;;;3.07;2.30;;;18.40;98.00;;;;;;5028799;28;20951;-71
2022/09/07 01:29:35;;;;;;;3.00;2.33;;;18.30;98.00;;;;;;5055389;28;20483;-71
2022/09/07 01:32:10;;;;;;;3.07;1.93;;;18.20;98.00;;;;;;5055297;28;20968;-71
2022/09/07 01:34:38;;;;;;;3.30;2.13;;;18.30;98.00;;;;;;5055416;28;20461;-70
2022/09/07 01:37:11;;;;;;;4.80;2.73;;;18.20;98.00;;;;;;5055235;28;20531;-71
2022/09/07 01:39:48;;;;;;;3.50;2.53;;;18.30;98.00;;;;;;5037759;28;20502;-71
2022/09/07 01:42:20;;;;;;;5.67;2.60;;;18.40;98.00;;;;;;5037282;28;20453;-71
2022/09/07 01:44:53;;;;;;;4.00;2.43;;;18.40;98.00;;;;;;5055014;28;20461;-71
2022/09/07 01:47:26;;;;;;;3.13;2.30;;;18.20;98.00;;;;;;5054875;28;20530;-71
2022/09/07 01:49:59;;;;;;;3.40;2.30;;;18.20;98.00;;;;;;5054724;28;20488;-71
2022/09/07 01:52:35;;;;;;;4.10;2.60;;;18.40;98.00;;;;;;5054718;28;20460;-71
2022/09/07 01:55:08;;;;;;;4.40;2.67;;;18.60;98.00;;;;;;5054901;28;20465;-71
2022/09/07 01:57:40;;;;;;;3.27;2.30;;;18.60;98.00;;;;;;5054801;28;20458;-71
2022/09/07 02:00:14;;;;;;;3.27;2.40;;;18.70;98.00;;;;;;5054657;28;20494;-71
2022/09/07 02:02:47;;;;;;;4.50;2.27;;;18.70;98.00;;;;;;5054707;28;20460;-71
2022/09/07 02:05:18;;;;;;;4.87;2.67;;;18.90;98.00;;;;;;5054557;28;20464;-71
2022/09/07 02:07:49;;;;;;;8.73;2.90;;;18.90;98.00;;;;;;5054593;28;20460;-71
2022/09/07 02:10:22;;;;;;;3.73;2.50;;;18.80;98.00;;;;;;5054571;28;20466;-71
2022/09/07 02:12:54;;;;;;;4.10;2.33;;;18.70;98.00;;;;;;5054710;28;20818;-71
2022/09/07 02:15:31;;;;;;;2.67;2.23;;;18.60;98.00;;;;;;5054501;28;20464;-71
2022/09/07 02:18:04;;;;;;;2.80;2.20;;;18.60;98.00;;;;;;5054536;28;20464;-71
2022/09/07 02:20:36;;;;;;;2.70;2.00;;;18.60;98.00;;;;;;5054709;28;20461;-71
2022/09/07 02:23:09;;;;;;;3.77;2.80;;;18.70;98.00;;;;;;5054525;28;20477;-71
2022/09/07 02:25:39;;;;;;;4.10;2.30;;;18.60;98.00;;;;;;5054568;28;20454;-71
2022/09/07 02:28:11;;;;;;;4.13;2.50;;;18.60;98.00;;;;;;5054244;28;21016;-70
2022/09/07 02:30:40;;;;;;;3.13;2.17;;;18.60;98.00;;;;;;5054546;28;20455;-71
2022/09/07 02:33:07;;;;;;;3.00;2.10;;;18.60;98.00;;;;;;5053990;28;20497;-71
2022/09/07 02:35:35;;;;;;;3.10;2.30;;;18.70;98.00;;;;;;5036366;28;20463;-71
2022/09/07 02:38:06;;;;;;;4.03;2.50;;;18.80;98.00;;;;;;5053653;28;20462;-71
2022/09/07 02:40:34;;;;;;;4.47;2.27;;;18.80;98.00;;;;;;5053991;28;20876;-71
2022/09/07 02:43:04;;;;;;;12.03;2.23;;;18.80;98.00;;;;;;5053860;28;20460;-70
2022/09/07 02:45:45;;;;;;;3.90;2.30;;;18.80;98.00;;;;;;5053842;28;20457;-71
2022/09/07 02:48:22;;;;;;;3.23;2.17;;;18.90;98.00;;;;;;5053392;28;20463;-71
2022/09/07 02:51:09;;;;;;;3.10;2.10;;;18.90;98.00;;;;;;5053813;28;20834;-71
2022/09/07 02:54:00;;;;;;;3.27;2.40;;;18.80;98.00;;;;;;5053833;28;20457;-71
2022/09/07 02:56:44;;;;;;;2.80;2.17;;;18.80;98.00;;;;;;5053633;28;20464;-71
2022/09/07 02:59:20;;;;;;;6.03;3.00;;;18.70;98.00;;;;;;5053776;28;20477;-71
2022/09/07 03:01:58;;;;;;;4.00;2.50;;;18.70;98.00;;;;;;5053674;28;20464;-71
2022/09/07 03:04:39;;;;;;;4.10;2.10;;;18.70;98.00;;;;;;5053608;28;20457;-71
2022/09/07 03:07:15;;;;;;;3.73;2.50;;;18.70;98.00;;;;;;5053527;28;20458;-71
2022/09/07 03:09:47;;;;;;;3.40;2.57;;;18.70;98.00;;;;;;5053194;28;20464;-71
2022/09/07 03:12:15;;;;;;;2.80;1.97;;;18.80;98.00;;;;;;5036244;28;20461;-71
2022/09/07 03:14:44;;;;;;;5.00;2.20;;;18.70;98.00;;;;;;5103698;22;20490;-86
2022/09/07 03:17:13;;;;;;;3.10;2.30;;;18.80;98.00;;;;;;5053337;28;20586;-86
2022/09/07 03:19:42;;;;;;;3.53;2.33;;;18.90;98.00;;;;;;5042905;28;20501;-85
2022/09/07 03:22:10;;;;;;;3.13;2.50;;;18.70;98.00;;;;;;5033471;28;20439;-86
2022/09/07 03:24:39;;;;;;;3.67;2.80;;;18.70;98.00;;;;;;5033417;28;20469;-86
2022/09/07 03:27:26;;;;;;;2.83;2.10;;;18.60;98.00;;;;;;5032753;28;20918;-86
2022/09/07 03:30:06;;;;;;;4.17;2.67;;;18.60;98.00;;;;;;5033170;28;20479;-86
2022/09/07 03:32:35;;;;;;;4.47;2.70;;;18.40;98.00;;;;;;5033237;28;20446;-86
2022/09/07 03:35:04;;;;;;;4.00;2.63;;;18.40;98.00;;;;;;5033447;28;20454;-86
2022/09/07 03:37:32;;;;;;;5.97;3.10;;;18.50;98.00;;;;;;5032647;28;20466;-86
2022/09/07 03:39:59;;;;;;;4.20;2.50;;;18.60;98.00;;;;;;5033030;28;20491;-86
2022/09/07 03:42:26;;;;;;;2.37;1.83;;;18.60;98.00;;;;;;5033538;28;20449;-86
2022/09/07 03:44:53;;;;;;;4.60;2.63;;;18.50;98.00;;;;;;5033355;28;20469;-87
2022/09/07 03:47:20;;;;;;;4.17;2.37;;;18.40;98.00;;;;;;5032512;28;20486;-86
2022/09/07 03:49:50;;;;;;;6.50;2.93;;;18.50;98.00;;;;;;5033243;28;20479;-86
2022/09/07 03:52:18;;;;;;;4.10;2.37;;;18.70;98.00;;;;;;5033145;28;20909;-86
2022/09/07 03:54:45;;;;;;;3.70;2.40;;;18.50;98.00;;;;;;5033012;28;20469;-86
2022/09/07 03:57:13;;;;;;;4.90;2.67;;;18.40;98.00;;;;;;5032311;28;20549;-86
2022/09/07 03:59:40;;;;;;;4.00;2.40;;;18.40;98.00;;;;;;5032791;28;20501;-86
2022/09/07 04:02:07;;;;;;;5.20;2.70;;;18.60;98.00;;;;;;5032960;28;20830;-86
2022/09/07 04:04:37;;;;;;;3.80;2.40;;;18.60;98.00;;;;;;5032428;28;20468;-86
2022/09/07 04:07:05;;;;;;;2.70;2.23;;;18.50;98.00;;;;;;5032239;28;20450;-86
2022/09/07 04:09:34;;;;;;;2.90;2.00;;;18.60;98.00;;;;;;5032532;28;21051;-86
2022/09/07 04:12:01;;;;;;;2.87;2.30;;;18.70;98.00;;;;;;5032356;28;20467;-86
2022/09/07 04:14:28;;;;;;;3.20;2.13;;;18.60;98.00;;;;;;5035564;28;20466;-86
2022/09/07 04:16:56;;;;;;;3.30;2.13;;;18.60;98.00;;;;;;5035873;28;20483;-86
2022/09/07 04:19:23;;;;;;;3.43;2.40;;;18.60;98.00;;;;;;5036166;28;20493;-86
2022/09/07 04:21:51;;;;;;;5.70;2.93;;;18.60;98.00;;;;;;5036524;28;20447;-86
2022/09/07 04:24:18;;;;;;;3.90;2.73;;;18.70;98.00;;;;;;5035684;28;20465;-87
2022/09/07 04:26:47;;;;;;;4.37;2.57;;;18.50;98.00;;;;;;5035761;28;20466;-86
2022/09/07 04:29:14;;;;;;;4.17;2.40;;;18.40;98.00;;;;;;5034903;28;20479;-86
2022/09/07 04:31:41;;;;;;;2.50;2.07;;;18.40;98.00;;;;;;5035898;28;20832;-86
2022/09/07 04:34:17;;;;;;;4.07;2.10;;;18.30;98.00;;;;;;5035934;28;20457;-86
2022/09/07 04:39:48;;;;;;;3.33;2.40;;;18.30;98.00;;;;;;5035143;28;20557;-86
2022/09/07 04:42:24;;;;;;;4.10;2.13;;;18.40;98.00;;;;;;5035677;28;20463;-86
2022/09/07 04:44:51;;;;;;;3.63;2.67;;;18.40;98.00;;;;;;5036120;28;20463;-86
2022/09/07 04:47:18;;;;;;;6.20;2.30;;;18.30;98.00;;;;;;5035199;28;20455;-86
2022/09/07 04:49:46;;;;;;;3.13;2.13;;;18.20;98.00;;;;;;5036107;28;20570;-86
2022/09/07 04:52:13;;;;;;;3.37;2.20;;;18.20;98.00;;;;;;5035554;28;20466;-86
2022/09/07 04:54:41;;;;;;;3.77;2.57;;;18.20;98.00;;;;;;5035514;28;20463;-86
2022/09/07 04:57:09;;;;;;;3.33;2.20;;;18.10;98.00;;;;;;5035712;28;20988;-86
2022/09/07 04:59:38;;;;;;;3.23;2.27;;;18.10;98.00;;;;;;5035290;28;20491;-86
2022/09/07 05:02:09;;;;;;;3.50;2.17;;;18.00;98.00;;;;;;5035250;28;20451;-86
2022/09/07 05:04:36;;;;;;;2.63;2.10;;;18.00;98.00;;;;;;5035398;28;20520;-86
2022/09/07 05:07:03;;;;;;;3.77;2.10;;;17.90;98.00;;;;;;5034853;28;20463;-86
2022/09/07 05:09:34;;;;;;;2.97;1.90;;;17.90;98.00;;;;;;5035667;28;20478;-86
2022/09/07 05:12:01;;;;;;;3.07;2.40;;;18.00;98.00;;;;;;5036016;28;20447;-86
2022/09/07 05:14:28;;;;;;;5.83;2.30;;;18.00;98.00;;;;;;5034822;28;20481;-86
2022/09/07 05:16:57;;;;;;;4.20;2.70;;;18.00;98.00;;;;;;5035183;28;20466;-86
2022/09/07 05:19:24;;;;;;;4.10;2.40;;;18.30;98.00;;;;;;5035926;28;20491;-85
2022/09/07 05:21:52;;;;;;;3.60;2.00;;;18.20;98.00;;;;;;5036192;28;20454;-86
2022/09/07 05:24:19;;;;;;;2.63;2.00;;;18.20;98.00;;;;;;5035834;28;20471;-86
2022/09/07 05:26:46;;;;;;;2.63;1.97;;;18.20;98.00;;;;;;5035248;28;21005;-86
2022/09/07 05:29:14;;;;;;;4.90;2.37;;;18.10;98.00;;;;;;5034643;28;20479;-86
2022/09/07 05:31:41;;;;;;;2.97;2.20;;;18.00;98.00;;;;;;5035308;28;20469;-85
2022/09/07 05:34:09;;;;;;;3.40;2.00;;;18.10;98.00;;;;;;5035301;28;20469;-86
2022/09/07 05:36:38;;;;;;;2.40;1.90;;;18.10;98.00;;;;;;5034797;28;20447;-86
2022/09/07 05:39:06;;;;;;;3.40;2.47;;;18.00;98.00;;;;;;5035052;28;20484;-86
2022/09/07 05:41:34;;;;;;;4.40;2.20;;;17.80;98.00;;;;;;5035388;28;20581;-86
2022/09/07 05:47:54;;;;;;;3.13;2.13;;;18.00;98.00;;;;;;5038954;28;20577;-86
2022/09/07 05:50:23;;;;;;;5.50;1.93;;;17.90;98.00;;;;;;5036375;28;20479;-86
2022/09/07 05:52:50;;;;;;;4.63;2.20;;;18.00;98.00;;;;;;5035574;28;20464;-86
2022/09/07 05:55:17;;;;;;;2.17;2.00;;;18.20;98.00;;;;;;5035511;28;20457;-86
2022/09/07 05:57:44;;;;;;;2.53;2.13;;;18.20;98.00;;;;;;5035084;28;20486;-86
2022/09/07 06:00:20;;;;;;;2.93;2.23;;;18.30;98.00;;;;;;5035180;28;20493;-87
2022/09/07 06:02:47;;;;;;;3.00;2.10;;;18.30;98.00;;;;;;5035353;28;20841;-86
2022/09/07 06:05:14;;;;;;;4.40;2.20;;;18.30;98.00;;;;;;5035618;28;20477;-86
2022/09/07 06:07:46;;;;;;;3.57;2.73;;;18.60;98.00;;;;;;5034887;28;20457;-86
2022/09/07 06:10:13;;;;;;;3.83;2.47;;;18.80;98.00;;;;;;5035523;28;20551;-87
2022/09/07 06:12:45;;;;;;;4.93;2.90;;;18.80;98.00;;;;;;5035610;28;20809;-87
2022/09/07 06:15:12;;;;;;;3.30;2.40;;;18.80;98.00;;;;;;5035447;28;20534;-87
2022/09/07 06:17:39;;;;;;;5.30;3.47;;;18.80;98.00;;;;;;5034082;28;20458;-89
2022/09/07 06:20:08;;;;;;;4.63;2.27;;;18.70;98.00;;;;;;5035212;28;20577;-86
2022/09/07 06:22:36;;;;;;;2.20;1.90;;;18.70;98.00;;;;;;5034977;28;20561;-85
2022/09/07 06:25:05;;;;;;;5.30;3.23;;;18.80;98.00;;;;;;5035137;28;20462;-86
2022/09/07 06:27:32;;;;;;;4.20;2.97;;;18.90;98.00;;;;;;5035345;28;20823;-86
2022/09/07 06:30:03;;;;;;;3.40;2.40;;;18.90;98.00;;;;;;5035339;28;21004;-86
2022/09/07 06:32:30;;;;;;;6.50;2.70;;;18.90;98.00;;;;;;5035064;28;20438;-86
2022/09/07 06:34:57;;;;;;;4.20;2.53;;;19.00;98.00;;;;;;5034379;28;20469;-86
2022/09/07 06:37:24;;;;;;;4.23;2.80;;;19.00;98.00;;;;;;5034974;28;20534;-85
2022/09/07 06:39:51;;;;;;;2.67;2.43;;;19.00;98.00;;;;;;5034880;28;20844;-86
2022/09/07 06:42:20;;;;;;;4.60;2.30;;;18.90;98.00;;;;;;5035061;28;20458;-87
2022/09/07 06:44:50;;;;;;;4.83;2.70;;;19.00;98.00;;;;;;5034780;28;20457;-85
2022/09/07 06:47:17;;;;;;;8.57;2.93;;;19.00;98.00;;;;;;5034980;28;20851;-86
2022/09/07 06:49:44;;;;;;;4.30;2.50;;;19.10;98.00;;;;;;5034532;28;20475;-86
2022/09/07 06:52:11;;;;;;;5.43;3.20;;;19.10;98.00;;;;;;5033872;28;20454;-86
2022/09/07 06:54:39;;;;;;;3.63;2.80;;;19.20;98.00;;;;;;5033567;28;20448;-86
2022/09/07 06:57:10;;;;;;;3.07;2.10;;;19.30;98.00;;;;;;5034376;28;20471;-86
2022/09/07 06:59:43;;;;;;;3.83;2.40;;;19.30;98.00;;;;;;5033904;28;20482;-86
2022/09/07 07:02:12;;;;;;;3.10;2.20;;;19.40;98.00;;;;;;5034105;28;20466;-86
2022/09/07 07:04:39;;;;;;;5.57;2.50;;;19.50;98.00;;;;;;5033912;28;20454;-87
2022/09/07 07:07:06;;;;;;;3.17;2.50;;;19.60;98.00;;;;;;5032611;28;20459;-87
2022/09/07 07:09:36;;;;;;;3.10;2.60;;;19.70;98.00;;;;;;5033716;28;20562;-87
2022/09/07 07:12:04;;;;;;;5.60;3.10;;;19.80;98.00;;;;;;5035628;28;20868;-87
2022/09/07 07:14:38;;;;;;;4.20;2.73;;;19.90;98.00;;;;;;5042224;28;20847;-87
2022/09/07 07:17:13;;;;;;;4.50;2.60;;;20.20;98.00;;;;;;5050407;28;20465;-86
2022/09/07 07:19:40;;;;;;;3.63;2.50;;;20.30;98.00;;;;;;5039933;28;20473;-87
2022/09/07 07:22:08;;;;;;;3.63;2.33;;;20.30;98.00;;;;;;5033367;28;20455;-86
2022/09/07 07:24:35;;;;;;;4.10;2.57;;;20.40;98.00;;;;;;5048766;28;20454;-87
2022/09/07 07:27:02;;;;;;;3.60;2.40;;;20.50;98.00;;;;;;5040853;28;20473;-88
2022/09/07 07:29:32;;;;;;;4.07;2.80;;;20.50;98.00;;;;;;5051081;28;20575;-88
2022/09/07 07:32:01;;;;;;;4.53;2.67;;;20.70;98.00;;;;;;5050685;28;20831;-87
2022/09/07 07:34:36;;;;;;;4.27;2.80;;;20.80;98.00;;;;;;5033082;28;20462;-87
2022/09/07 07:37:14;;;;;;;3.93;2.00;;;20.90;98.00;;;;;;5040704;28;20475;-86
2022/09/07 07:40:00;;;;;;;3.50;2.57;;;21.10;98.00;;;;;;5024218;28;20494;-86
2022/09/07 07:42:27;;;;;;;3.30;2.30;;;21.20;98.00;;;;;;5048531;28;20857;-88
2022/09/07 07:44:55;;;;;;;3.80;2.50;;;21.30;98.00;;;;;;5037898;28;20477;-88
2022/09/07 07:47:22;;;;;;;3.30;2.20;;;21.70;98.00;;;;;;5035689;28;20503;-88
2022/09/07 07:49:50;;;;;;;4.97;2.53;;;22.00;98.00;;;;;;5031013;28;20846;-88
2022/09/07 07:52:18;;;;;;;3.20;2.37;;;22.30;98.00;;;;;;5044714;28;20888;-88
2022/09/07 07:54:46;;;;;;;3.07;2.50;;;22.50;98.00;;;;;;5036134;28;20513;-87
2022/09/07 07:57:15;;;;;;;4.83;2.70;;;22.80;98.00;;;;;;5036036;28;20548;-87
2022/09/07 07:59:42;;;;;;;4.17;2.77;;;23.00;98.00;;;;;;5029975;28;20509;-85
2022/09/07 08:02:16;;;;;;;3.80;2.30;;;23.10;98.00;;;;;;5036995;28;20462;-85
2022/09/07 08:04:43;;;;;;;5.50;2.80;;;23.20;98.00;;;;;;5033316;28;21049;-85
2022/09/07 08:07:36;;;;;;;2.60;2.13;;;23.50;98.00;;;;;;5038658;28;20480;-85
2022/09/07 08:10:06;;;;;;;4.03;2.13;;;23.60;98.00;;;;;;5025720;28;20486;-85
2022/09/07 08:12:33;;;;;;;2.57;2.00;;;23.60;98.00;;;;;;5037239;28;20457;-85
2022/09/07 08:15:00;;;;;;;2.63;2.00;;;23.60;98.00;;;;;;5032152;28;20459;-84
2022/09/07 08:17:28;;;;;;;2.40;1.87;;;23.60;98.00;;;;;;5032216;28;20457;-85
2022/09/07 08:19:55;;;;;;;2.57;2.23;;;23.70;98.00;;;;;;5045225;28;20572;-85
2022/09/07 08:22:23;;;;;;;3.30;2.00;;;23.80;98.00;;;;;;5040381;28;20461;-87
2022/09/07 08:24:54;;;;;;;4.63;1.90;;;23.90;98.00;;;;;;5041305;28;20462;-88
2022/09/07 08:27:21;;;;;;;2.70;1.97;;;24.00;98.00;;;;;;5048482;28;20458;-87
2022/09/07 08:29:48;;;;;;;3.03;1.90;;;24.00;98.00;;;;;;5041828;28;20481;-88
2022/09/07 08:32:22;;;;;;;2.97;2.10;;;24.00;98.00;;;;;;5036755;28;20466;-85
2022/09/07 08:34:49;;;;;;;2.73;2.03;;;24.10;98.00;;;;;;5035053;28;20552;-88
2022/09/07 08:37:26;;;;;;;2.53;1.97;;;24.20;98.00;;;;;;5046747;28;20466;-88
2022/09/07 08:39:55;;;;;;;3.47;2.37;;;24.40;98.00;;;;;;5033952;28;20493;-87
2022/09/07 08:42:37;;;;;;;2.90;2.23;;;24.50;98.00;;;;;;5039756;28;20478;-87
2022/09/07 08:45:10;;;;;;;2.87;2.10;;;24.50;98.00;;;;;;5038644;28;20466;-87
2022/09/07 08:47:42;;;;;;;3.97;2.30;;;24.60;98.00;;;;;;5048850;28;20462;-86
2022/09/07 08:51:02;;;;;;;5.90;2.10;;;24.70;98.00;;;;;;5051838;28;20489;-90
2022/09/07 08:53:45;;;;;;;4.60;2.20;;;24.80;98.00;;;;;;5018016;28;20465;-91
2022/09/07 08:56:53;;;;;;;2.63;1.70;;;24.90;98.00;;;;;;5052660;28;20465;-92
2022/09/07 08:59:43;;;;;;;3.87;2.40;;;25.00;98.00;;;;;;5052578;28;20512;-92
2022/09/07 09:09:16;;;;;;;2.90;2.20;;;25.40;98.00;;;;;;5028650;28;20881;-92
2022/09/07 09:12:17;;;;;;;2.90;2.10;;;25.60;98.00;;;;;;5051451;28;20446;-92
2022/09/07 09:15:08;;;;;;;4.73;2.20;;;25.70;98.00;;;;;;5053268;28;20469;-92
2022/09/07 09:17:50;;;;;;;2.90;2.10;;;25.80;98.00;;;;;;5052020;28;20461;-92
2022/09/07 09:20:26;;;;;;;5.03;2.50;;;25.80;98.00;;;;;;5061971;22;20568;-65
2022/09/07 09:23:01;;;;;;;2.70;2.10;;;26.00;98.00;;;;;;5021781;28;20476;-65
2022/09/07 09:25:33;;;;;;;2.60;2.10;;;25.90;98.00;;;;;;5055672;28;20487;-65
2022/09/07 09:28:02;;;;;;;2.97;2.40;;;25.80;98.00;;;;;;5038065;28;20535;-66
2022/09/07 09:30:31;;;;;;;2.60;2.10;;;25.80;98.00;;;;;;5055187;28;20940;-66
2022/09/07 09:33:14;;;;;;;2.93;2.27;;;25.90;98.00;;;;;;5037649;28;20454;-66
2022/09/07 09:35:41;;;;;;;7.40;2.17;;;26.00;98.00;;;;;;5055384;28;20457;-65
2022/09/07 09:38:31;;;;;;;5.03;2.60;;;26.20;98.00;;;;;;5055131;28;20462;-69
2022/09/07 09:41:03;;;;;;;2.50;2.20;;;26.50;98.00;;;;;;5038094;28;20903;-65
2022/09/07 09:43:39;;;;;;;5.37;2.73;;;26.80;98.00;;;;;;5055095;28;20561;-64
2022/09/07 09:46:18;;;;;;;3.97;2.30;;;26.90;98.00;;;;;;5055073;28;20590;-63
2022/09/07 09:48:53;;;;;;;3.00;2.20;;;27.10;98.00;;;;;;5054957;28;20493;-66
2022/09/07 09:51:22;;;;;;;3.47;2.23;;;27.30;98.00;;;;;;5055024;28;20457;-66
2022/09/07 09:53:58;;;;;;;2.50;1.90;;;27.20;98.00;;;;;;5054987;28;20453;-65
2022/09/07 09:56:41;;;;;;;2.90;2.40;;;27.00;98.00;;;;;;5054662;28;20456;-66
2022/09/07 09:59:23;;;;;;;7.03;2.57;;;26.90;98.00;;;;;;5054654;28;20461;-65
2022/09/07 10:01:51;;;;;;;2.87;2.20;;;27.00;98.00;;;;;;5054534;28;20492;-65
2022/09/07 10:04:20;;;;;;;4.63;2.40;;;27.10;98.00;;;;;;5054756;28;20453;-65
2022/09/07 10:06:51;;;;;;;2.93;2.30;;;27.10;98.00;;;;;;5054587;28;21157;-65
2022/09/07 10:09:23;;;;;;;3.37;2.43;;;27.00;98.00;;;;;;5054747;28;21092;-65
2022/09/07 10:11:58;;;;;;;3.70;2.10;;;26.90;98.00;;;;;;5054825;28;20453;-65
2022/09/07 10:14:30;;;;;;;4.50;2.13;;;26.80;98.00;;;;;;5054821;28;21009;-66
2022/09/07 10:16:58;;;;;;;2.77;2.23;;;26.80;98.00;;;;;;5054456;28;20940;-65
2022/09/07 10:19:32;;;;;;;4.13;2.57;;;27.10;98.00;;;;;;5054044;28;20956;-65
2022/09/07 10:22:03;;;;;;;5.07;2.67;;;27.20;98.00;;;;;;5054105;28;20543;-66
2022/09/07 10:24:36;;;;;;;3.53;2.33;;;27.20;98.00;;;;;;5054396;28;20485;-65
2022/09/07 10:27:20;;;;;;;3.40;2.50;;;27.00;98.00;;;;;;5054067;28;20552;-66
2022/09/07 10:29:49;;;;;;;3.70;2.70;;;26.80;98.00;;;;;;5054160;28;20522;-66
2022/09/07 10:32:40;;;;;;;2.73;2.20;;;26.80;98.00;;;;;;5053973;28;20457;-66
2022/09/07 10:35:16;;;;;;;4.80;2.67;;;26.60;98.00;;;;;;5053987;28;20454;-65
2022/09/07 10:37:54;;;;;;;4.23;2.40;;;26.60;98.00;;;;;;5053938;28;20839;-66
2022/09/07 10:40:30;;;;;;;2.93;2.20;;;26.50;98.00;;;;;;5053945;28;20461;-65
2022/09/07 10:43:10;;;;;;;6.30;3.30;;;26.70;98.00;;;;;;5053954;28;20826;-66
2022/09/07 10:45:46;;;;;;;3.97;2.50;;;27.00;98.00;;;;;;5053844;28;20462;-66
2022/09/07 10:48:21;;;;;;;4.20;2.40;;;27.10;98.00;;;;;;5053821;28;20826;-66
2022/09/07 10:50:51;;;;;;;2.73;2.40;;;27.20;98.00;;;;;;5053887;28;20504;-65
2022/09/07 10:53:42;;;;;;;3.27;2.40;;;27.30;98.00;;;;;;5053365;28;20458;-66
2022/09/07 10:56:12;;;;;;;3.00;2.40;;;27.10;98.00;;;;;;5053634;28;20480;-66
2022/09/07 10:59:06;;;;;;;3.03;2.40;;;27.40;98.00;;;;;;5053644;28;20472;-66
2022/09/07 11:01:47;;;;;;;3.77;2.30;;;27.70;97.60;;;;;;5053634;28;20481;-65
2022/09/07 11:04:48;;;;;;;4.27;2.80;;;27.70;96.90;;;;;;5053701;28;20466;-66
2022/09/07 11:07:33;;;;;;;2.57;2.33;;;27.50;97.30;;;;;;5010201;28;20462;-66
2022/09/07 11:10:09;;;;;;;2.20;1.97;;;27.50;98.00;;;;;;5053737;28;20465;-66
2022/09/07 11:12:39;;;;;;;3.03;2.40;;;27.40;97.80;;;;;;5053803;28;20457;-65
2022/09/07 11:15:19;;;;;;;4.23;2.40;;;27.40;97.50;;;;;;5053453;28;20457;-66
2022/09/07 11:17:52;;;;;;;2.63;2.27;;;27.30;97.30;;;;;;5053390;28;20461;-65
2022/09/07 11:20:26;;;;;;;3.20;2.30;;;27.10;98.00;;;;;;5052381;28;20465;-64
2022/09/07 11:23:00;;;;;;;3.60;2.07;;;27.10;98.00;;;;;;5052329;28;21052;-69
2022/09/07 11:25:33;;;;;;;2.73;2.00;;;26.90;98.00;;;;;;5052203;28;20473;-68
2022/09/07 11:28:08;;;;;;;3.03;2.40;;;26.90;98.00;;;;;;5052114;28;20465;-69
2022/09/07 11:30:40;;;;;;;2.50;2.20;;;27.10;98.00;;;;;;5052244;28;20489;-68
2022/09/07 11:33:17;;;;;;;4.07;2.83;;;27.50;98.00;;;;;;5051994;28;20461;-70
2022/09/07 11:35:49;;;;;;;4.23;2.23;;;27.70;96.20;;;;;;5051809;28;20460;-71
2022/09/07 11:38:25;;;;;;;3.20;2.27;;;27.70;95.20;;;;;;5051925;28;20951;-70
2022/09/07 11:41:15;;;;;;;2.43;2.00;;;27.40;96.80;;;;;;5051229;28;20458;-68
2022/09/07 11:43:46;;;;;;;2.77;2.20;;;27.20;97.40;;;;;;5051997;28;20458;-65
2022/09/07 11:46:17;;;;;;;6.83;2.57;;;27.00;98.00;;;;;;5051811;28;20560;-65
2022/09/07 11:48:49;;;;;;;2.90;2.30;;;26.80;98.00;;;;;;5051970;28;20932;-65
2022/09/07 11:51:21;;;;;;;3.50;2.60;;;26.50;98.00;;;;;;5051821;28;20461;-65
2022/09/07 11:53:53;;;;;;;3.20;2.10;;;26.10;98.00;;;;;;5052025;28;20477;-61
2022/09/07 11:56:26;;;;;;;4.33;2.67;;;25.70;98.00;;;;;;5051873;28;20539;-65
2022/09/07 11:59:19;;;;;;;4.10;2.73;;;25.50;98.00;;;;;;5051753;28;20469;-65
2022/09/07 12:01:59;;;;;;;4.10;2.87;;;25.30;98.00;;;;;;5051897;28;20481;-67
2022/09/07 12:04:48;;;;;;;6.60;3.17;;;25.70;98.00;;;;;;5051960;28;20794;-67
2022/09/07 12:07:56;;;;;;;4.13;2.97;;;26.50;98.00;;;;;;5051826;28;20457;-66
2022/09/07 12:10:39;;;;;;;4.70;2.77;;;27.40;98.00;;;;;;4970787;28;20465;-66
2022/09/07 12:13:40;;;;;;;3.83;2.70;;;28.20;98.00;;;;;;4970848;28;20458;-66
2022/09/07 12:16:12;;;;;;;2.90;2.30;;;28.90;98.00;;;;;;5038738;28;20456;-67
2022/09/07 12:19:04;;;;;;;4.47;2.90;;;29.60;98.00;;;;;;5006644;28;1288817;-64
2022/09/07 12:21:41;;;;;;;3.73;2.27;;;30.20;98.00;;;;;;5052102;28;20539;-66
2022/09/07 12:24:35;;;;;;;4.57;2.83;;;30.70;98.00;;;;;;5052348;28;20553;-68
2022/09/07 12:27:02;;;;;;;3.10;2.20;;;31.10;96.30;;;;;;5051809;28;20453;-68
2022/09/07 12:29:31;;;;;;;3.67;2.80;;;31.40;95.20;;;;;;5052047;28;20450;-67
2022/09/07 12:31:59;;;;;;;3.40;2.40;;;31.60;90.00;;;;;;5051872;28;20454;-68
2022/09/07 12:34:57;;;;;;;4.17;2.40;;;31.50;91.40;;;;;;5052041;28;20456;-69
2022/09/07 12:37:43;;;;;;;3.57;2.40;;;31.80;89.70;;;;;;5051942;28;20518;-67
2022/09/07 12:40:48;;;;;;;4.90;3.00;;;31.90;86.90;;;;;;5051888;28;20480;-66
2022/09/07 12:43:35;;;;;;;3.47;2.60;;;32.20;87.90;;;;;;5051560;28;21018;-66
2022/09/07 12:46:02;;;;;;;3.40;2.50;;;32.50;84.60;;;;;;5051845;28;20465;-66
2022/09/07 12:48:43;;;;;;;3.20;2.40;;;32.70;83.20;;;;;;5051748;28;20465;-63
2022/09/07 12:51:15;;;;;;;4.33;2.63;;;33.00;83.20;;;;;;5051820;28;20461;-63
2022/09/07 12:53:53;;;;;;;6.20;2.80;;;33.20;80.60;;;;;;5050831;28;20498;-63
2022/09/07 12:56:31;;;;;;;3.73;2.40;;;33.30;82.80;;;;;;5051673;28;20457;-63
2022/09/07 12:59:24;;;;;;;5.00;2.27;;;33.40;79.30;;;;;;5051798;28;20464;-65
2022/09/07 13:01:56;;;;;;;3.10;2.33;;;33.20;79.80;;;;;;5036890;28;20482;-65
2022/09/07 13:04:52;;;;;;;3.27;2.47;;;32.90;81.20;;;;;;5051794;28;20871;-64
2022/09/07 13:07:39;;;;;;;2.60;2.30;;;33.00;82.20;;;;;;5051680;28;20458;-65
2022/09/07 13:10:26;;;;;;;2.83;2.30;;;33.10;79.30;;;;;;5051778;28;20474;-67
2022/09/07 13:12:53;;;;;;;4.20;2.30;;;33.30;82.20;;;;;;5051767;28;20457;-67
2022/09/07 13:15:38;;;;;;;3.50;2.30;;;33.30;80.00;;;;;;5034160;28;20927;-67
2022/09/07 13:18:06;;;;;;;4.40;2.50;;;33.90;77.60;;;;;;5050560;28;20466;-66
2022/09/07 13:20:33;;;;;;;3.53;2.50;;;33.40;76.90;;;;;;5051948;28;20484;-67
2022/09/07 13:23:20;;;;;;;3.50;2.70;;;32.70;78.60;;;;;;5051395;28;20477;-67
2022/09/07 13:25:52;;;;;;;3.43;2.37;;;31.80;78.60;;;;;;5051588;28;20472;-67
2022/09/07 13:28:46;;;;;;;3.00;2.10;;;31.30;83.20;;;;;;5032846;28;20968;-67
2022/09/07 13:31:44;;;;;;;3.90;2.43;;;30.90;82.90;;;;;;5050774;28;20461;-67